Time;durP1;ratioP1;P1;durP2;ratioP2;P2;SDS_P1;SDS_P2;PMS_P1;PMS_P2;Temp;Humidity;BMP_temperature;BMP_pressure;BME280_temperature;BME280_humidity;BME280_pressure;Samples;Min_cycle;Max_cycle;Signal;HPM_P1;HPM_P2
2022/04/09 00:01:28;;;;;;;18.10;3.00;;;3.80;99.90;;;;;;5050285;28;20041;-68
2022/04/09 00:03:54;;;;;;;23.00;2.90;;;3.80;99.90;;;;;;5040517;28;20072;-67
2022/04/09 00:06:19;;;;;;;16.10;2.72;;;3.70;99.90;;;;;;5041899;28;20120;-69
2022/04/09 00:08:45;;;;;;;17.80;3.47;;;3.70;99.90;;;;;;5048881;28;20480;-73
2022/04/09 00:11:10;;;;;;;21.65;3.00;;;3.60;99.90;;;;;;5051038;28;20063;-67
2022/04/09 00:13:36;;;;;;;11.07;2.20;;;3.70;99.90;;;;;;5050513;28;20044;-68
2022/04/09 00:16:02;;;;;;;14.93;3.60;;;3.70;99.90;;;;;;5050885;28;20419;-71
2022/04/09 00:18:28;;;;;;;19.05;3.22;;;3.70;99.90;;;;;;5050925;28;20041;-68
2022/04/09 00:20:55;;;;;;;19.48;4.20;;;3.60;99.90;;;;;;5048393;28;20068;-69
2022/04/09 00:23:23;;;;;;;13.45;2.65;;;3.50;99.90;;;;;;5061580;28;20048;-68
2022/04/09 00:25:48;;;;;;;13.63;3.13;;;3.40;99.90;;;;;;5050494;28;20037;-68
2022/04/09 00:28:14;;;;;;;23.08;3.03;;;3.50;99.90;;;;;;5047621;28;20041;-73
2022/04/09 00:30:39;;;;;;;13.77;2.70;;;3.60;99.90;;;;;;5048520;28;20049;-68
2022/04/09 00:33:05;;;;;;;17.48;2.25;;;3.70;99.90;;;;;;5049753;28;20067;-72
2022/04/09 00:35:30;;;;;;;7.90;1.98;;;3.60;99.90;;;;;;5049819;28;20044;-68
2022/04/09 00:37:56;;;;;;;15.93;3.03;;;3.80;99.90;;;;;;5055165;28;20376;-75
2022/04/09 00:40:25;;;;;;;17.30;2.80;;;3.80;99.90;;;;;;5030947;28;20044;-72
2022/04/09 00:42:51;;;;;;;12.32;2.58;;;4.00;99.90;;;;;;5049725;28;20049;-76
2022/04/09 00:45:16;;;;;;;9.85;2.75;;;4.20;99.90;;;;;;5050227;28;20043;-73
2022/04/09 00:47:42;;;;;;;12.50;2.72;;;4.30;99.90;;;;;;5049205;28;20722;-69
2022/04/09 00:50:10;;;;;;;12.50;2.03;;;4.30;99.90;;;;;;5047412;28;20569;-70
2022/04/09 00:52:42;;;;;;;10.25;2.80;;;4.30;99.90;;;;;;5049765;28;20083;-70
2022/04/09 00:55:08;;;;;;;;;;;4.20;99.90;;;;;;5060302;28;20127;-68
2022/04/09 00:57:35;;;;;;;4.70;1.25;;;4.30;99.90;;;;;;5043418;28;20004;-68
2022/04/09 01:00:09;;;;;;;13.13;1.98;;;4.20;99.90;;;;;;5049704;28;20049;-69
2022/04/09 01:02:40;;;;;;;10.73;3.00;;;4.20;99.90;;;;;;5057632;28;20064;-71
2022/04/09 01:05:06;;;;;;;8.90;2.17;;;4.20;99.90;;;;;;5047721;28;20324;-67
2022/04/09 01:07:33;;;;;;;12.23;2.05;;;4.20;99.90;;;;;;5048822;28;20543;-67
2022/04/09 01:10:00;;;;;;;12.98;1.85;;;4.10;99.90;;;;;;5049681;28;20174;-72
2022/04/09 01:12:25;;;;;;;10.55;2.25;;;4.20;99.90;;;;;;5049048;28;20044;-66
2022/04/09 01:14:51;;;;;;;11.48;1.63;;;4.20;99.90;;;;;;5049500;28;20503;-75
2022/04/09 01:17:17;;;;;;;17.15;2.80;;;4.40;99.90;;;;;;5051994;28;20500;-67
2022/04/09 01:19:43;;;;;;;5.97;1.80;;;4.50;99.90;;;;;;5048249;28;20087;-68
2022/04/09 01:22:08;;;;;;;13.70;2.10;;;4.60;99.90;;;;;;5049715;28;20529;-73
2022/04/09 01:24:34;;;;;;;9.32;2.08;;;4.60;99.90;;;;;;5032629;28;20041;-68
2022/04/09 01:26:59;;;;;;;10.52;1.40;;;4.40;99.90;;;;;;5054781;28;20039;-70
2022/04/09 01:29:25;;;;;;;5.97;1.42;;;4.30;99.90;;;;;;5047264;28;20085;-70
2022/04/09 01:31:51;;;;;;;9.32;1.17;;;4.30;99.90;;;;;;5056717;28;20037;-68
2022/04/09 01:34:16;;;;;;;15.82;1.50;;;4.30;99.90;;;;;;5032229;28;20088;-71
2022/04/09 01:36:42;;;;;;;10.90;1.75;;;4.20;99.90;;;;;;5049290;28;20557;-75
2022/04/09 01:39:07;;;;;;;14.73;2.35;;;4.10;99.90;;;;;;5063257;28;20029;-69
2022/04/09 01:41:33;;;;;;;10.32;1.75;;;4.20;99.90;;;;;;5048522;28;20270;-73
2022/04/09 01:43:58;;;;;;;19.33;2.35;;;4.00;99.90;;;;;;5055695;28;20472;-68
2022/04/09 01:46:24;;;;;;;9.15;2.10;;;4.00;99.90;;;;;;5045818;28;20535;-74
2022/04/09 01:48:49;;;;;;;12.82;2.78;;;4.10;99.90;;;;;;5032326;28;20033;-68
2022/04/09 01:51:15;;;;;;;16.13;2.80;;;4.10;99.90;;;;;;5049581;28;20049;-67
2022/04/09 01:53:40;;;;;;;19.27;2.80;;;3.90;99.90;;;;;;5047233;28;20487;-68
2022/04/09 01:56:06;;;;;;;12.27;1.83;;;4.00;99.90;;;;;;5048401;28;20033;-70
2022/04/09 01:58:32;;;;;;;8.30;1.77;;;4.00;99.90;;;;;;5055870;28;20048;-74
2022/04/09 02:00:59;;;;;;;9.95;1.63;;;4.00;99.90;;;;;;5048364;28;20041;-69
2022/04/09 02:03:26;;;;;;;14.20;2.83;;;4.20;99.90;;;;;;5047577;28;20041;-68
2022/04/09 02:05:51;;;;;;;9.30;1.65;;;4.10;99.90;;;;;;5066056;28;20034;-68
2022/04/09 02:08:17;;;;;;;13.38;2.35;;;4.10;99.90;;;;;;5048789;28;20051;-69
2022/04/09 02:10:43;;;;;;;10.35;1.58;;;4.00;99.90;;;;;;5046534;28;20167;-68
2022/04/09 02:13:12;;;;;;;6.93;2.40;;;4.10;99.90;;;;;;5030860;28;20060;-70
2022/04/09 02:15:38;;;;;;;11.75;2.15;;;4.10;99.90;;;;;;5046236;28;20037;-66
2022/04/09 02:18:03;;;;;;;5.70;1.25;;;4.20;99.90;;;;;;5040500;28;20459;-69
2022/04/09 02:20:29;;;;;;;5.57;1.60;;;4.20;99.90;;;;;;5037694;28;20045;-69
2022/04/09 02:22:55;;;;;;;8.57;1.15;;;4.30;99.90;;;;;;5052156;28;20149;-73
2022/04/09 02:25:21;;;;;;;14.73;1.95;;;4.30;99.90;;;;;;5047203;28;20061;-69
2022/04/09 02:27:46;;;;;;;11.52;2.25;;;4.30;99.90;;;;;;5046904;28;20045;-72
2022/04/09 02:30:12;;;;;;;10.95;1.70;;;4.30;99.90;;;;;;5047865;28;20047;-71
2022/04/09 02:32:52;;;;;;;10.55;2.08;;;4.20;99.90;;;;;;5054547;28;20494;-74
2022/04/09 02:35:18;;;;;;;10.45;1.88;;;4.10;99.90;;;;;;5048302;28;20033;-73
2022/04/09 02:37:44;;;;;;;7.40;2.05;;;3.90;99.90;;;;;;5031211;28;20045;-70
2022/04/09 02:40:10;;;;;;;7.45;1.65;;;4.00;99.90;;;;;;5046791;28;20561;-73
2022/04/09 02:42:38;;;;;;;10.07;1.67;;;3.90;99.90;;;;;;5048938;28;20037;-72
2022/04/09 02:45:05;;;;;;;14.48;2.72;;;3.70;99.90;;;;;;5054250;28;20046;-70
2022/04/09 02:47:31;;;;;;;14.07;2.30;;;3.60;99.90;;;;;;5042700;28;20068;-69
2022/04/09 02:49:58;;;;;;;16.42;2.28;;;3.50;99.90;;;;;;5070305;28;20040;-70
2022/04/09 02:52:27;;;;;;;20.92;2.55;;;3.40;99.90;;;;;;5037933;28;20597;-69
2022/04/09 02:54:53;;;;;;;17.25;2.88;;;3.20;99.90;;;;;;5054633;28;20052;-69
2022/04/09 02:57:18;;;;;;;11.70;2.90;;;3.20;99.90;;;;;;5052205;28;20115;-69
2022/04/09 02:59:44;;;;;;;22.15;3.05;;;2.90;99.90;;;;;;5056023;28;20033;-69
2022/04/09 03:02:09;;;;;;;15.77;3.47;;;2.90;99.90;;;;;;5053682;28;20029;-70
2022/04/09 03:04:35;;;;;;;17.35;3.05;;;2.90;99.90;;;;;;5048934;28;20721;-72
2022/04/09 03:07:00;;;;;;;12.38;2.60;;;3.00;99.90;;;;;;5047885;28;20029;-75
2022/04/09 03:09:26;;;;;;;11.55;1.85;;;3.20;99.90;;;;;;5046025;28;20365;-71
2022/04/09 03:11:51;;;;;;;7.82;1.98;;;3.50;99.90;;;;;;5046095;28;20041;-67
2022/04/09 03:14:17;;;;;;;10.38;1.88;;;3.60;99.90;;;;;;5046794;28;20506;-75
2022/04/09 03:16:42;;;;;;;6.43;1.30;;;3.70;99.90;;;;;;5042786;28;20400;-69
2022/04/09 03:19:08;;;;;;;10.10;1.60;;;3.90;99.90;;;;;;5048501;28;20159;-72
2022/04/09 03:21:33;;;;;;;7.18;1.20;;;3.90;99.90;;;;;;5049741;28;20049;-68
2022/04/09 03:23:59;;;;;;;9.90;1.52;;;3.70;99.90;;;;;;5045481;28;20399;-68
2022/04/09 03:26:24;;;;;;;10.57;1.48;;;3.80;99.90;;;;;;5030006;28;20033;-73
2022/04/09 03:28:50;;;;;;;7.90;1.50;;;3.70;99.90;;;;;;5047301;28;20033;-74
2022/04/09 03:31:16;;;;;;;7.53;1.60;;;3.60;99.90;;;;;;5054149;28;20036;-75
2022/04/09 03:33:43;;;;;;;8.57;1.80;;;3.50;99.90;;;;;;5048977;28;20055;-73
2022/04/09 03:36:09;;;;;;;15.93;2.30;;;3.60;99.90;;;;;;5055835;28;20042;-70
2022/04/09 03:38:35;;;;;;;8.50;1.88;;;3.40;99.90;;;;;;5046858;28;20045;-72
2022/04/09 03:41:00;;;;;;;8.45;1.90;;;3.40;99.90;;;;;;5040607;28;20378;-69
2022/04/09 03:43:26;;;;;;;18.98;2.67;;;3.30;99.90;;;;;;5057569;28;20048;-70
2022/04/09 03:45:51;;;;;;;16.75;2.70;;;3.40;99.90;;;;;;5047946;28;20037;-75
2022/04/09 03:48:17;;;;;;;8.40;1.20;;;3.40;99.90;;;;;;5046902;28;20061;-70
2022/04/09 03:50:42;;;;;;;7.72;1.58;;;3.50;99.90;;;;;;5049484;28;20041;-74
2022/04/09 03:53:08;;;;;;;16.88;2.83;;;3.70;99.90;;;;;;5055476;28;20037;-68
2022/04/09 03:55:33;;;;;;;21.58;3.28;;;3.70;99.90;;;;;;5030512;28;20040;-75
2022/04/09 03:57:59;;;;;;;16.50;2.45;;;3.70;99.90;;;;;;5030359;28;20537;-68
2022/04/09 04:00:25;;;;;;;19.30;3.08;;;3.50;99.90;;;;;;5049542;28;20072;-69
2022/04/09 04:02:51;;;;;;;13.27;3.28;;;3.50;99.90;;;;;;5049044;28;20037;-67
2022/04/09 04:05:17;;;;;;;10.20;2.70;;;3.40;99.90;;;;;;5056469;28;20036;-68
2022/04/09 04:07:43;;;;;;;18.13;3.75;;;3.30;99.90;;;;;;5046366;28;20056;-68
2022/04/09 04:10:10;;;;;;;24.23;3.67;;;3.10;99.90;;;;;;5046941;28;20599;-67
2022/04/09 04:12:36;;;;;;;20.27;3.22;;;3.20;99.90;;;;;;5038662;28;20068;-68
2022/04/09 04:15:02;;;;;;;19.42;2.85;;;3.20;99.90;;;;;;5037755;28;20042;-67
2022/04/09 04:17:41;;;;;;;26.05;4.05;;;3.00;99.90;;;;;;5046757;28;20045;-68
2022/04/09 04:20:07;;;;;;;19.73;3.10;;;3.10;99.90;;;;;;5028933;28;20055;-69
2022/04/09 04:22:33;;;;;;;19.15;3.58;;;2.90;99.90;;;;;;5048788;28;20029;-68
2022/04/09 04:24:58;;;;;;;21.00;3.13;;;3.00;99.90;;;;;;5051417;28;20124;-69
2022/04/09 04:27:24;;;;;;;17.88;3.40;;;3.30;99.90;;;;;;5050997;28;20098;-69
2022/04/09 04:29:50;;;;;;;17.83;2.97;;;3.20;99.90;;;;;;5059150;28;20124;-69
2022/04/09 04:32:15;;;;;;;21.58;3.80;;;3.40;99.90;;;;;;5033530;28;20055;-69
2022/04/09 04:34:40;;;;;;;14.52;3.00;;;3.30;99.90;;;;;;5050028;28;20051;-68
2022/04/09 04:37:06;;;;;;;21.98;3.33;;;3.20;99.90;;;;;;5050754;28;20029;-67
2022/04/09 04:39:31;;;;;;;10.05;2.28;;;3.20;99.90;;;;;;5049829;28;20045;-69
2022/04/09 04:41:57;;;;;;;25.17;3.85;;;3.40;99.90;;;;;;5050061;28;20400;-70
2022/04/09 04:44:23;;;;;;;9.48;2.20;;;3.30;99.90;;;;;;5064905;28;20048;-69
2022/04/09 04:46:48;;;;;;;11.57;2.40;;;3.30;99.90;;;;;;5033279;28;20033;-71
2022/04/09 04:49:14;;;;;;;9.98;1.38;;;3.40;99.90;;;;;;5032829;28;20037;-73
2022/04/09 04:51:39;;;;;;;10.48;2.00;;;3.60;99.90;;;;;;5048110;28;20045;-69
2022/04/09 04:54:05;;;;;;;12.07;2.17;;;3.70;99.90;;;;;;5053357;28;20091;-67
2022/04/09 04:56:31;;;;;;;15.57;1.63;;;3.70;99.90;;;;;;5048816;28;20045;-71
2022/04/09 04:58:56;;;;;;;12.73;1.63;;;3.80;99.90;;;;;;5050322;28;20047;-68
2022/04/09 05:01:22;;;;;;;16.83;2.80;;;4.00;99.90;;;;;;5060581;28;20045;-71
2022/04/09 05:03:47;;;;;;;15.80;2.55;;;3.90;99.90;;;;;;5049838;28;20047;-71
2022/04/09 05:06:13;;;;;;;5.97;1.33;;;4.10;99.90;;;;;;5049286;28;20131;-72
2022/04/09 05:08:40;;;;;;;7.30;1.48;;;4.20;99.90;;;;;;5056369;28;20041;-71
2022/04/09 05:11:05;;;;;;;9.80;1.48;;;4.20;99.90;;;;;;5048938;28;20041;-69
2022/04/09 05:13:31;;;;;;;8.60;1.60;;;4.10;99.90;;;;;;5053287;28;20047;-71
2022/04/09 05:15:58;;;;;;;10.13;1.52;;;4.10;99.90;;;;;;5052513;28;20051;-74
2022/04/09 05:18:23;;;;;;;10.73;1.90;;;4.10;99.90;;;;;;5062475;28;20544;-71
2022/04/09 05:20:50;;;;;;;7.82;2.17;;;4.30;99.90;;;;;;5061129;28;20030;-72
2022/04/09 05:23:16;;;;;;;13.85;2.28;;;4.30;99.90;;;;;;5055278;28;20060;-75
2022/04/09 05:25:42;;;;;;;10.93;1.45;;;4.20;99.90;;;;;;5064198;28;20125;-72
2022/04/09 05:28:10;;;;;;;8.55;1.90;;;4.20;99.90;;;;;;5054709;28;20037;-72
2022/04/09 05:30:36;;;;;;;14.38;2.88;;;4.20;99.90;;;;;;5067340;28;20066;-68
2022/04/09 05:33:03;;;;;;;11.02;2.00;;;4.10;99.90;;;;;;5054017;28;20041;-70
2022/04/09 05:35:29;;;;;;;14.98;2.15;;;4.00;99.90;;;;;;5044202;28;20060;-68
2022/04/09 05:37:54;;;;;;;11.45;2.33;;;4.00;99.90;;;;;;5031946;28;20044;-68
2022/04/09 05:40:22;;;;;;;18.85;2.00;;;4.00;99.90;;;;;;5047845;28;20064;-73
2022/04/09 05:42:48;;;;;;;17.73;2.45;;;4.00;99.90;;;;;;5054224;28;20396;-69
2022/04/09 05:45:14;;;;;;;11.60;2.45;;;4.10;99.90;;;;;;5057680;28;20041;-68
2022/04/09 05:47:44;;;;;;;13.35;2.40;;;4.20;99.90;;;;;;5046905;28;20483;-70
2022/04/09 05:50:10;;;;;;;18.13;3.00;;;4.30;99.90;;;;;;5051508;28;20040;-68
2022/04/09 05:52:36;;;;;;;20.52;2.83;;;4.50;99.90;;;;;;5048046;28;20131;-69
2022/04/09 05:55:03;;;;;;;16.23;2.75;;;4.60;99.90;;;;;;5050333;28;20064;-68
2022/04/09 05:57:32;;;;;;;17.35;2.90;;;4.50;99.90;;;;;;5065106;28;20605;-69
2022/04/09 05:59:58;;;;;;;21.52;3.08;;;4.50;99.90;;;;;;5045276;28;20033;-71
2022/04/09 06:02:23;;;;;;;16.20;2.75;;;4.50;99.90;;;;;;5048759;28;20506;-72
2022/04/09 06:04:49;;;;;;;15.85;2.83;;;4.60;99.90;;;;;;5052676;28;20040;-72
2022/04/09 06:07:14;;;;;;;22.60;2.85;;;4.60;99.90;;;;;;5049376;28;20044;-70
2022/04/09 06:09:41;;;;;;;20.52;2.65;;;4.50;99.90;;;;;;5050577;28;20460;-71
2022/04/09 06:12:08;;;;;;;11.73;2.03;;;4.80;99.90;;;;;;5045092;28;20506;-68
2022/04/09 06:14:34;;;;;;;10.45;2.25;;;4.90;99.90;;;;;;5059392;28;20041;-75
2022/04/09 06:16:59;;;;;;;8.75;1.60;;;4.90;99.90;;;;;;5048949;28;20521;-68
2022/04/09 06:19:27;;;;;;;7.30;1.85;;;4.90;99.90;;;;;;5053852;28;20045;-73
2022/04/09 06:21:52;;;;;;;11.15;1.70;;;5.00;99.90;;;;;;5048564;28;20052;-70
2022/04/09 06:24:18;;;;;;;12.70;1.55;;;5.20;99.90;;;;;;5047762;28;20599;-66
2022/04/09 06:26:44;;;;;;;11.55;1.90;;;5.30;99.90;;;;;;5055917;28;20041;-68
2022/04/09 06:29:09;;;;;;;9.85;1.40;;;5.40;99.90;;;;;;5044722;28;20056;-72
2022/04/09 06:31:35;;;;;;;5.90;1.60;;;5.50;99.90;;;;;;5060438;28;20048;-72
2022/04/09 06:34:00;;;;;;;10.23;1.35;;;5.60;99.90;;;;;;5049311;28;20395;-72
2022/04/09 06:36:26;;;;;;;8.18;1.55;;;5.70;99.90;;;;;;5043026;28;20087;-66
2022/04/09 06:38:53;;;;;;;19.20;1.48;;;5.70;99.90;;;;;;5048550;28;20731;-71
2022/04/09 06:41:18;;;;;;;10.45;1.40;;;5.80;99.90;;;;;;5031718;28;20548;-71
2022/04/09 06:43:45;;;;;;;6.50;1.58;;;5.90;99.90;;;;;;5047489;28;20040;-74
2022/04/09 06:46:11;;;;;;;10.63;1.33;;;5.90;99.90;;;;;;5057746;28;20488;-70
2022/04/09 06:48:37;;;;;;;5.93;1.38;;;6.00;99.90;;;;;;5033994;28;20079;-72
2022/04/09 06:51:03;;;;;;;12.85;2.17;;;6.10;99.90;;;;;;5041694;28;20037;-70
2022/04/09 06:53:29;;;;;;;6.38;1.40;;;6.20;99.90;;;;;;5045301;28;20047;-71
2022/04/09 06:55:55;;;;;;;17.25;2.50;;;6.40;99.90;;;;;;5049160;28;20041;-70
2022/04/09 06:58:20;;;;;;;12.48;1.80;;;6.40;99.90;;;;;;5066188;28;20546;-71
2022/04/09 07:00:46;;;;;;;17.15;2.53;;;6.20;99.90;;;;;;5058252;28;20095;-69
2022/04/09 07:03:13;;;;;;;5.47;1.10;;;6.10;99.90;;;;;;5049786;28;20408;-70
2022/04/09 07:05:40;;;;;;;16.10;2.05;;;6.10;99.90;;;;;;5046130;28;20060;-71
2022/04/09 07:08:07;;;;;;;12.63;2.03;;;6.10;99.90;;;;;;5065982;28;20047;-75
2022/04/09 07:10:34;;;;;;;17.08;1.90;;;6.20;99.90;;;;;;5065517;28;20115;-68
2022/04/09 07:13:00;;;;;;;9.65;1.73;;;6.30;99.90;;;;;;5046721;28;20502;-69
2022/04/09 07:15:26;;;;;;;9.18;1.75;;;6.30;99.90;;;;;;5033680;28;20041;-73
2022/04/09 07:17:51;;;;;;;13.20;3.20;;;6.40;99.90;;;;;;5049307;28;20088;-73
2022/04/09 07:20:17;;;;;;;17.10;2.50;;;6.50;99.90;;;;;;5044060;28;20132;-69
2022/04/09 07:22:43;;;;;;;4.03;1.40;;;6.60;99.90;;;;;;5048511;28;20235;-72
2022/04/09 07:25:10;;;;;;;17.45;2.58;;;6.60;99.90;;;;;;5051933;28;20071;-70
2022/04/09 07:27:43;;;;;;;10.70;1.77;;;6.70;99.90;;;;;;5043467;28;20025;-72
2022/04/09 07:30:12;;;;;;;14.30;1.88;;;6.90;99.90;;;;;;5041025;28;20060;-71
2022/04/09 07:32:38;;;;;;;15.20;1.88;;;6.80;99.90;;;;;;5055855;28;20033;-67
2022/04/09 07:35:04;;;;;;;12.75;1.70;;;6.60;99.90;;;;;;5049004;28;20033;-68
2022/04/09 07:37:30;;;;;;;11.73;1.60;;;6.50;99.90;;;;;;5032245;28;20411;-65
2022/04/09 07:39:55;;;;;;;7.93;1.38;;;6.40;99.90;;;;;;5047687;28;20033;-68
2022/04/09 07:42:22;;;;;;;16.65;2.28;;;6.50;99.90;;;;;;5032215;28;20075;-67
2022/04/09 07:44:48;;;;;;;11.27;1.90;;;6.40;99.90;;;;;;5047303;28;20120;-73
2022/04/09 07:47:14;;;;;;;11.10;1.50;;;6.40;99.90;;;;;;5046548;28;20163;-67
2022/04/09 07:49:40;;;;;;;9.70;1.80;;;6.50;99.90;;;;;;5038693;28;20090;-68
2022/04/09 07:52:06;;;;;;;6.70;1.63;;;6.60;99.90;;;;;;5042803;28;20033;-70
2022/04/09 07:54:32;;;;;;;12.85;1.98;;;6.70;99.90;;;;;;5059855;28;20056;-66
2022/04/09 07:56:58;;;;;;;12.40;1.60;;;6.90;99.90;;;;;;5048424;28;20041;-69
2022/04/09 07:59:24;;;;;;;10.20;1.58;;;6.90;99.90;;;;;;5042762;28;20368;-67
2022/04/09 08:01:50;;;;;;;8.50;1.65;;;7.10;99.90;;;;;;5055980;28;20048;-63
2022/04/09 08:04:15;;;;;;;16.02;1.75;;;7.20;99.90;;;;;;5066958;28;20041;-68
2022/04/09 08:06:41;;;;;;;9.15;1.58;;;7.20;99.90;;;;;;5066409;28;20056;-73
2022/04/09 08:09:06;;;;;;;11.63;2.05;;;7.30;99.90;;;;;;5034137;28;20479;-67
2022/04/09 08:11:32;;;;;;;12.65;1.77;;;7.30;99.90;;;;;;5045256;28;20080;-66
2022/04/09 08:13:57;;;;;;;8.02;1.35;;;7.40;99.90;;;;;;5052627;28;20115;-67
2022/04/09 08:16:25;;;;;;;9.05;1.90;;;7.50;99.90;;;;;;5028415;28;20162;-65
2022/04/09 08:18:50;;;;;;;10.15;1.80;;;7.50;99.90;;;;;;5038571;28;20782;-70
2022/04/09 08:21:17;;;;;;;7.95;1.80;;;7.60;99.90;;;;;;5055845;28;20072;-71
2022/04/09 08:23:43;;;;;;;18.75;2.08;;;7.60;99.90;;;;;;5068135;28;20119;-67
2022/04/09 08:26:09;;;;;;;10.00;1.75;;;7.60;99.90;;;;;;5054492;28;20121;-70
2022/04/09 08:28:36;;;;;;;19.17;2.30;;;7.70;99.90;;;;;;5052220;28;20076;-65
2022/04/09 08:31:02;;;;;;;9.82;1.60;;;7.90;99.90;;;;;;5055349;28;20037;-68
2022/04/09 08:33:28;;;;;;;10.77;1.75;;;7.90;99.90;;;;;;5058892;28;20045;-67
2022/04/09 08:35:53;;;;;;;7.78;1.77;;;8.00;99.90;;;;;;5057561;28;20045;-70
2022/04/09 08:38:19;;;;;;;8.07;1.70;;;8.30;99.90;;;;;;5050786;28;20090;-69
2022/04/09 08:40:45;;;;;;;16.98;1.77;;;8.40;99.90;;;;;;5048983;28;20068;-72
2022/04/09 08:43:11;;;;;;;8.35;2.08;;;8.40;99.90;;;;;;5035337;28;20071;-70
2022/04/09 08:45:41;;;;;;;9.70;2.22;;;8.30;99.90;;;;;;5051059;28;20460;-73
2022/04/09 08:48:09;;;;;;;13.45;1.80;;;8.20;99.90;;;;;;5052132;28;20025;-68
2022/04/09 08:50:35;;;;;;;4.32;0.75;;;7.80;99.90;;;;;;5068594;28;20495;-70
2022/04/09 08:53:06;;;;;;;3.47;1.08;;;6.90;99.90;;;;;;5052197;28;20253;-66
2022/04/09 08:55:34;;;;;;;6.80;1.40;;;6.10;99.90;;;;;;5050379;28;20064;-69
2022/04/09 08:57:59;;;;;;;10.98;1.23;;;5.70;99.90;;;;;;5051158;28;20116;-66
2022/04/09 09:00:25;;;;;;;15.68;2.70;;;5.60;99.90;;;;;;5045497;28;20140;-68
2022/04/09 09:02:53;;;;;;;12.63;1.55;;;5.40;99.90;;;;;;5063522;28;20026;-72
2022/04/09 09:05:42;;;;;;;10.52;2.22;;;5.60;99.90;;;;;;5042058;28;20121;-67
2022/04/09 09:08:09;;;;;;;10.18;1.17;;;5.80;99.90;;;;;;5064619;28;20072;-70
2022/04/09 09:10:36;;;;;;;10.32;1.55;;;6.10;99.90;;;;;;5014324;28;20049;-69
2022/04/09 09:13:07;;;;;;;10.18;1.20;;;6.40;99.90;;;;;;5040103;28;20090;-66
2022/04/09 09:15:52;;;;;;;5.82;1.20;;;6.70;99.90;;;;;;5066267;28;20052;-68
2022/04/09 09:18:36;;;;;;;7.32;1.20;;;6.90;99.90;;;;;;5031964;28;20222;-66
2022/04/09 09:21:02;;;;;;;9.05;1.80;;;7.10;99.90;;;;;;5047153;28;20210;-68
2022/04/09 09:23:30;;;;;;;8.18;1.63;;;7.30;99.90;;;;;;5050725;28;20044;-68
2022/04/09 09:25:57;;;;;;;8.95;1.17;;;7.60;99.90;;;;;;5033890;28;20508;-74
2022/04/09 09:28:27;;;;;;;2.58;0.90;;;7.90;99.90;;;;;;5051087;28;20110;-69
2022/04/09 09:30:54;;;;;;;8.85;1.33;;;8.10;99.90;;;;;;5050393;28;20040;-67
2022/04/09 09:33:20;;;;;;;7.38;1.00;;;8.20;99.90;;;;;;5049968;28;20111;-67
2022/04/09 09:35:59;;;;;;;14.95;2.33;;;8.30;99.90;;;;;;5034549;28;20074;-65
2022/04/09 09:38:27;;;;;;;14.23;2.00;;;8.20;99.90;;;;;;5049600;28;20126;-75
2022/04/09 09:40:54;;;;;;;8.20;1.60;;;8.10;99.90;;;;;;5067371;28;20056;-71
2022/04/09 09:43:21;;;;;;;6.53;1.48;;;8.10;99.90;;;;;;5051120;28;20449;-67
2022/04/09 09:45:49;;;;;;;7.70;2.17;;;8.20;99.90;;;;;;5032756;28;20128;-67
2022/04/09 09:48:25;;;;;;;8.68;1.50;;;8.30;99.90;;;;;;5050351;28;20049;-67
2022/04/09 09:50:52;;;;;;;17.65;2.53;;;8.40;99.90;;;;;;5031910;28;20065;-70
2022/04/09 09:53:32;;;;;;;10.32;1.83;;;8.60;99.90;;;;;;5030649;28;20130;-71
2022/04/09 09:55:59;;;;;;;8.65;1.88;;;8.80;99.90;;;;;;5030653;28;20049;-65
2022/04/09 09:58:30;;;;;;;21.88;1.73;;;8.80;99.90;;;;;;5030912;28;20047;-71
2022/04/09 10:00:57;;;;;;;18.95;1.75;;;8.70;99.90;;;;;;5037931;28;20084;-76
2022/04/09 10:03:24;;;;;;;11.27;1.67;;;8.60;99.90;;;;;;5050634;28;20037;-72
2022/04/09 10:05:50;;;;;;;7.35;1.77;;;8.60;99.90;;;;;;5050202;28;20243;-68
2022/04/09 10:08:17;;;;;;;12.40;2.28;;;8.60;99.90;;;;;;5047896;28;20118;-67
2022/04/09 10:10:48;;;;;;;11.98;2.30;;;8.60;99.90;;;;;;5049878;28;20059;-68
2022/04/09 10:13:19;;;;;;;10.38;3.00;;;8.70;99.90;;;;;;5047269;28;20511;-64
2022/04/09 10:15:47;;;;;;;11.30;1.98;;;8.80;99.90;;;;;;5030388;28;20088;-64
2022/04/09 10:18:13;;;;;;;11.68;2.65;;;8.90;99.90;;;;;;5053252;28;20045;-65
2022/04/09 10:20:39;;;;;;;10.15;2.63;;;8.90;99.90;;;;;;5048322;28;20070;-64
2022/04/09 10:23:09;;;;;;;12.40;2.90;;;8.90;99.90;;;;;;5056620;28;20040;-68
2022/04/09 10:25:39;;;;;;;10.68;2.15;;;8.60;99.90;;;;;;5047869;28;20072;-69
2022/04/09 10:28:06;;;;;;;11.88;2.22;;;8.20;99.90;;;;;;5058596;28;20135;-66
2022/04/09 10:30:39;;;;;;;16.73;2.92;;;7.90;99.90;;;;;;5051526;28;20037;-65
2022/04/09 10:33:22;;;;;;;13.18;2.60;;;7.70;99.90;;;;;;5060638;28;20040;-66
2022/04/09 10:35:48;;;;;;;17.25;3.08;;;7.70;99.90;;;;;;5063532;28;20063;-69
2022/04/09 10:38:20;;;;;;;15.60;2.20;;;7.70;99.90;;;;;;5056202;28;20128;-68
2022/04/09 10:40:48;;;;;;;7.95;1.90;;;7.80;99.90;;;;;;5055401;28;20033;-66
2022/04/09 10:43:23;;;;;;;8.00;1.67;;;7.80;99.90;;;;;;5032136;28;20044;-70
2022/04/09 10:46:05;;;;;;;9.13;1.50;;;7.50;99.90;;;;;;5048939;28;20048;-70
2022/04/09 10:48:38;;;;;;;4.47;1.20;;;7.20;99.90;;;;;;5048245;28;20554;-68
2022/04/09 10:51:08;;;;;;;9.68;1.27;;;6.90;99.90;;;;;;5049555;28;20083;-64
2022/04/09 10:53:36;;;;;;;10.48;1.80;;;6.90;99.90;;;;;;5049722;28;20048;-66
2022/04/09 10:56:27;;;;;;;7.10;1.13;;;7.20;99.90;;;;;;5045520;28;20041;-65
2022/04/09 10:59:16;;;;;;;10.98;1.52;;;7.50;99.90;;;;;;5032663;28;20395;-68
2022/04/09 11:01:51;;;;;;;11.27;1.90;;;7.70;99.90;;;;;;5049378;28;20409;-71
2022/04/09 11:04:35;;;;;;;9.52;1.75;;;7.80;99.90;;;;;;5049396;28;20135;-74
2022/04/09 11:07:16;;;;;;;9.57;1.45;;;7.50;99.90;;;;;;5048136;28;20067;-73
2022/04/09 11:09:52;;;;;;;11.38;2.20;;;7.00;99.90;;;;;;5046010;28;20044;-71
2022/04/09 11:12:25;;;;;;;5.25;1.40;;;6.50;99.90;;;;;;5049389;28;20052;-72
2022/04/09 11:14:59;;;;;;;6.70;1.02;;;6.30;99.90;;;;;;5047527;28;20646;-69
2022/04/09 11:17:36;;;;;;;10.98;2.05;;;6.30;99.90;;;;;;5048590;28;20060;-69
2022/04/09 11:20:10;;;;;;;5.20;1.25;;;6.30;99.90;;;;;;5048800;28;20446;-66
2022/04/09 11:22:51;;;;;;;7.35;1.98;;;6.30;99.90;;;;;;5066090;28;20495;-64
2022/04/09 11:25:18;;;;;;;5.25;1.17;;;6.50;99.90;;;;;;5065940;28;20415;-64
2022/04/09 11:27:44;;;;;;;7.53;1.40;;;6.80;99.90;;;;;;5047484;28;20146;-71
2022/04/09 11:30:10;;;;;;;8.85;1.35;;;7.10;99.90;;;;;;5048131;28;20510;-68
2022/04/09 11:32:35;;;;;;;7.28;1.17;;;7.30;99.90;;;;;;5034369;28;20067;-72
2022/04/09 11:35:08;;;;;;;2.75;0.70;;;6.80;99.90;;;;;;5069540;28;20074;-66
2022/04/09 11:37:42;;;;;;;4.15;0.70;;;6.20;99.90;;;;;;5062338;28;20404;-69
2022/04/09 11:40:09;;;;;;;5.38;1.23;;;5.70;99.90;;;;;;5043442;28;20037;-67
2022/04/09 11:42:49;;;;;;;5.03;0.95;;;5.50;99.90;;;;;;5041686;28;20618;-67
2022/04/09 11:45:19;;;;;;;5.35;1.60;;;5.60;99.90;;;;;;5049246;28;20442;-70
2022/04/09 11:47:45;;;;;;;3.13;0.93;;;5.70;99.90;;;;;;5048873;28;20118;-68
2022/04/09 11:50:14;;;;;;;3.15;0.60;;;5.70;99.90;;;;;;5047063;28;20057;-66
2022/04/09 11:52:40;;;;;;;6.50;0.88;;;5.80;99.90;;;;;;5049239;28;20037;-67
2022/04/09 11:55:10;;;;;;;10.85;1.00;;;5.60;99.90;;;;;;5055819;28;20067;-68
2022/04/09 11:57:36;;;;;;;6.45;1.17;;;5.60;99.90;;;;;;5061112;28;20037;-65
2022/04/09 12:00:04;;;;;;;7.53;1.45;;;5.70;99.90;;;;;;5046966;28;20634;-67
2022/04/09 12:02:30;;;;;;;9.18;1.35;;;5.70;99.90;;;;;;5065090;28;20411;-68
2022/04/09 12:04:56;;;;;;;9.65;1.92;;;5.70;99.90;;;;;;5043428;28;20033;-65
2022/04/09 12:07:28;;;;;;;5.60;1.10;;;5.80;99.90;;;;;;5046013;28;20048;-67
2022/04/09 12:09:54;;;;;;;7.68;1.02;;;5.80;99.90;;;;;;5049626;28;20114;-72
2022/04/09 12:12:20;;;;;;;12.75;1.50;;;5.90;99.90;;;;;;5047760;28;20442;-69
2022/04/09 12:14:57;;;;;;;7.93;1.92;;;5.90;99.90;;;;;;5050264;28;20072;-72
2022/04/09 12:17:31;;;;;;;6.85;1.40;;;6.10;99.90;;;;;;5033163;28;20504;-72
2022/04/09 12:19:57;;;;;;;8.77;1.35;;;6.50;99.90;;;;;;5046925;28;20053;-68
2022/04/09 12:22:24;;;;;;;10.50;1.83;;;6.70;99.90;;;;;;5028879;28;20063;-67
2022/04/09 12:24:52;;;;;;;7.35;1.52;;;7.00;99.90;;;;;;5058903;28;20037;-69
2022/04/09 12:27:42;;;;;;;5.97;1.30;;;6.90;99.90;;;;;;5063333;28;20043;-70
2022/04/09 12:30:08;;;;;;;10.13;1.50;;;6.50;99.90;;;;;;5040136;28;20128;-70
2022/04/09 12:32:34;;;;;;;4.97;1.00;;;5.80;99.90;;;;;;5048487;28;20540;-67
2022/04/09 12:35:05;;;;;;;8.20;1.25;;;5.40;99.90;;;;;;5048384;28;20037;-66
2022/04/09 12:37:41;;;;;;;5.50;1.10;;;5.20;99.90;;;;;;5047493;28;20072;-69
2022/04/09 12:40:18;;;;;;;4.30;0.98;;;5.20;99.90;;;;;;5034069;28;20041;-72
2022/04/09 12:42:46;;;;;;;6.32;1.20;;;5.20;99.90;;;;;;5028069;28;20049;-69
2022/04/09 12:45:15;;;;;;;8.52;1.60;;;5.50;99.90;;;;;;5045876;28;20037;-67
2022/04/09 12:47:41;;;;;;;5.72;1.40;;;5.80;99.90;;;;;;5068463;28;20040;-67
2022/04/09 12:50:21;;;;;;;2.97;1.00;;;6.10;99.90;;;;;;5060852;28;20029;-70
2022/04/09 12:52:47;;;;;;;6.82;1.63;;;6.40;99.90;;;;;;5052094;28;20510;-68